Time;durP1;ratioP1;P1;durP2;ratioP2;P2;SDS_P1;SDS_P2;PMS_P1;PMS_P2;Temp;Humidity;BMP_temperature;BMP_pressure;BME280_temperature;BME280_humidity;BME280_pressure;Samples;Min_cycle;Max_cycle;Signal;HPM_P1;HPM_P2
2021/03/18 00:00:29;;;;;;;6.77;3.87;;;;;;;5.38;72.79;96987.69;5069664;28;21034;-65
2021/03/18 00:02:55;;;;;;;5.33;4.00;;;;;;;5.42;72.24;96991.56;5071579;28;20420;-63
2021/03/18 00:05:20;;;;;;;5.20;3.83;;;;;;;5.39;72.71;96992.72;5063379;28;20482;-59
2021/03/18 00:07:46;;;;;;;5.13;4.20;;;;;;;5.37;72.80;96988.66;5068980;28;20660;-59
2021/03/18 00:10:12;;;;;;;3.97;3.67;;;;;;;5.34;72.53;96987.25;5067328;28;20174;-63
2021/03/18 00:12:38;;;;;;;4.60;4.20;;;;;;;5.32;72.73;96981.41;5059053;28;20258;-63
2021/03/18 00:15:08;;;;;;;6.63;4.60;;;;;;;5.37;72.34;96988.66;5059854;28;20922;-63
2021/03/18 00:17:34;;;;;;;4.37;3.80;;;;;;;5.39;72.88;96976.28;5051605;28;20192;-59
2021/03/18 00:19:59;;;;;;;7.73;4.80;;;;;;;5.39;72.67;96977.09;5058909;28;20525;-58
2021/03/18 00:22:25;;;;;;;4.73;4.20;;;;;;;5.38;72.98;96978.06;5073598;28;20203;-63
2021/03/18 00:24:50;;;;;;;6.63;4.30;;;;;;;5.37;72.68;96984.28;5070077;28;20664;-59
2021/03/18 00:27:15;;;;;;;7.60;4.83;;;;;;;5.37;73.29;96980.84;5072922;28;20196;-63
2021/03/18 00:29:41;;;;;;;7.13;5.40;;;;;;;5.37;72.50;96976.47;5069974;28;20196;-60
2021/03/18 00:32:07;;;;;;;5.00;4.50;;;;;;;5.31;72.87;96979.78;5053458;28;20178;-63
2021/03/18 00:34:32;;;;;;;4.20;3.80;;;;;;;5.13;72.48;96979.28;5053101;28;20186;-63
2021/03/18 00:36:58;;;;;;;7.63;4.47;;;;;;;5.18;73.15;96977.00;5052881;28;20430;-63
2021/03/18 00:39:23;;;;;;;6.47;5.00;;;;;;;5.25;73.64;96977.91;5053138;28;20251;-59
2021/03/18 00:41:48;;;;;;;5.67;3.97;;;;;;;5.29;73.27;96973.13;5053138;28;20663;-63
2021/03/18 00:44:14;;;;;;;5.50;5.00;;;;;;;5.26;73.09;96974.28;5052965;28;20303;-62
2021/03/18 00:46:39;;;;;;;4.83;4.33;;;;;;;5.11;73.22;96971.66;5052265;28;20182;-63
2021/03/18 00:49:05;;;;;;;4.53;4.23;;;;;;;5.03;72.74;96973.53;5053337;28;20191;-59
2021/03/18 00:51:31;;;;;;;4.30;3.90;;;;;;;5.05;72.69;96959.31;5054674;28;20180;-59
2021/03/18 00:53:58;;;;;;;4.43;4.03;;;;;;;5.08;72.55;96959.00;5065571;28;20499;-63
2021/03/18 00:56:23;;;;;;;5.30;4.43;;;;;;;5.10;72.35;96954.44;5076851;28;20205;-63
2021/03/18 00:58:49;;;;;;;4.60;4.20;;;;;;;5.15;72.95;96948.66;5076952;28;20423;-64
2021/03/18 01:01:19;;;;;;;4.73;4.33;;;;;;;5.17;72.91;96950.13;5060737;28;20256;-60
2021/03/18 01:03:45;;;;;;;4.07;3.77;;;;;;;5.18;72.93;96950.94;5057016;28;20183;-64
2021/03/18 01:06:20;;;;;;;4.60;4.20;;;;;;;5.18;72.02;96949.13;5076037;28;20546;-64
2021/03/18 01:08:46;;;;;;;5.07;4.40;;;;;;;5.21;72.24;96956.59;5065563;28;20223;-59
2021/03/18 01:11:14;;;;;;;4.67;3.90;;;;;;;5.12;72.18;96952.47;5057023;28;20397;-63
2021/03/18 01:13:47;;;;;;;5.70;4.13;;;;;;;5.19;72.34;96957.75;5056939;28;20236;-64
2021/03/18 01:16:18;;;;;;;5.60;4.37;;;;;;;5.22;71.72;96957.38;5056054;28;20431;-63
2021/03/18 01:18:55;;;;;;;4.27;3.97;;;;;;;5.21;72.17;96955.78;5056693;28;20432;-59
2021/03/18 01:21:24;;;;;;;4.57;4.17;;;;;;;5.23;72.09;96949.44;5060256;28;20542;-59
2021/03/18 01:23:50;;;;;;;5.63;3.77;;;;;;;5.23;72.06;96949.44;5076783;28;20906;-60
2021/03/18 01:26:15;;;;;;;4.83;4.17;;;;;;;5.24;71.25;96953.63;5075874;28;20428;-59
2021/03/18 01:28:41;;;;;;;5.20;3.80;;;;;;;5.32;70.79;96952.75;5076534;28;20207;-63
2021/03/18 01:31:09;;;;;;;4.50;3.83;;;;;;;5.31;70.75;96953.72;5057227;28;20171;-63
2021/03/18 01:33:35;;;;;;;4.20;3.83;;;;;;;5.33;71.56;96956.97;5056470;28;20508;-63
2021/03/18 01:36:01;;;;;;;4.37;3.97;;;;;;;5.31;70.95;96950.34;5060106;28;20955;-59
2021/03/18 01:38:28;;;;;;;4.13;3.60;;;;;;;5.33;71.42;96950.97;5075102;28;20446;-60
2021/03/18 01:40:55;;;;;;;6.27;3.90;;;;;;;5.36;71.30;96948.81;5076177;28;20481;-59
2021/03/18 01:43:21;;;;;;;5.10;4.03;;;;;;;5.32;71.18;96944.13;5076258;28;20399;-63
2021/03/18 01:45:47;;;;;;;5.67;3.77;;;;;;;5.20;71.29;96944.56;5076362;28;20412;-63
2021/03/18 01:48:12;;;;;;;5.30;4.80;;;;;;;5.16;70.96;96948.50;5075785;28;20433;-63
2021/03/18 01:50:39;;;;;;;3.53;3.23;;;;;;;5.16;71.18;96952.91;5074336;28;20601;-63
2021/03/18 01:53:05;;;;;;;4.53;3.70;;;;;;;5.13;71.57;96954.06;5076037;28;20536;-59
2021/03/18 01:55:33;;;;;;;4.60;3.83;;;;;;;4.94;70.99;96946.75;5060043;28;20482;-59
2021/03/18 01:58:00;;;;;;;7.40;3.53;;;;;;;4.75;71.43;96947.22;5055548;28;20426;-59
2021/03/18 02:00:27;;;;;;;4.50;3.90;;;;;;;4.87;72.39;96951.03;5055947;28;20502;-59
2021/03/18 02:02:52;;;;;;;4.63;3.70;;;;;;;4.93;70.90;96942.53;5055301;28;20413;-63
2021/03/18 02:05:18;;;;;;;5.30;3.70;;;;;;;4.96;71.18;96943.97;5056029;28;20427;-64
2021/03/18 02:07:44;;;;;;;5.03;3.87;;;;;;;4.88;71.65;96946.63;5055313;28;20193;-59
2021/03/18 02:10:11;;;;;;;4.47;3.93;;;;;;;4.91;71.91;96941.09;5056433;28;20427;-62
2021/03/18 02:12:37;;;;;;;5.90;4.30;;;;;;;4.92;72.14;96940.09;5054502;28;20401;-59
2021/03/18 02:15:05;;;;;;;4.77;3.83;;;;;;;4.92;71.97;96942.72;5055892;28;20405;-59
2021/03/18 02:17:49;;;;;;;4.30;3.87;;;;;;;4.93;70.93;96942.53;5060341;28;20422;-59
2021/03/18 02:20:32;;;;;;;3.90;3.53;;;;;;;4.87;71.68;96943.22;5075428;28;20506;-60
2021/03/18 02:23:29;;;;;;;4.60;3.50;;;;;;;4.93;71.71;96936.50;5075531;28;20427;-63
2021/03/18 02:26:15;;;;;;;4.00;3.30;;;;;;;4.90;71.45;96940.28;5065164;28;20428;-64
2021/03/18 02:28:52;;;;;;;3.33;3.13;;;;;;;5.00;71.99;96940.03;5055506;28;20881;-59
2021/03/18 02:32:09;;;;;;;5.73;3.47;;;;;;;4.99;70.98;96933.19;5055192;28;20481;-64
2021/03/18 02:34:54;;;;;;;6.20;4.60;;;;;;;4.68;72.25;96940.28;5053851;28;20438;-63
2021/03/18 02:37:22;;;;;;;3.80;3.50;;;;;;;4.76;71.69;96946.25;5054510;28;20454;-60
2021/03/18 02:39:55;;;;;;;4.20;3.90;;;;;;;4.85;71.61;96937.41;5055481;28;20410;-62
2021/03/18 02:42:22;;;;;;;3.80;3.50;;;;;;;4.86;71.92;96943.41;5055320;28;20916;-63
2021/03/18 02:44:51;;;;;;;5.33;4.23;;;;;;;4.87;71.46;96937.22;5056131;28;20457;-63
2021/03/18 02:47:23;;;;;;;3.77;3.37;;;;;;;4.95;72.28;96947.56;5054628;28;20410;-60
2021/03/18 02:49:52;;;;;;;4.70;4.30;;;;;;;5.00;71.87;96945.25;5055059;28;20459;-63
2021/03/18 02:52:22;;;;;;;7.53;4.00;;;;;;;4.91;72.85;96946.31;5054923;28;20420;-59
2021/03/18 02:54:52;;;;;;;5.00;4.23;;;;;;;4.92;72.95;96951.34;5055021;28;20419;-63
2021/03/18 02:57:20;;;;;;;5.67;4.00;;;;;;;5.00;72.25;96950.47;5054610;28;20503;-59
2021/03/18 02:59:47;;;;;;;8.23;4.93;;;;;;;5.00;72.45;96958.28;5054811;28;20424;-62
2021/03/18 03:02:19;;;;;;;4.27;3.97;;;;;;;5.05;72.53;96954.13;5054729;28;20413;-59
2021/03/18 03:04:46;;;;;;;5.10;3.80;;;;;;;5.09;72.46;96959.81;5054500;28;20421;-63
2021/03/18 03:07:14;;;;;;;4.27;3.57;;;;;;;5.05;73.02;96958.53;5054394;28;20498;-63
2021/03/18 03:09:44;;;;;;;4.40;4.07;;;;;;;5.11;72.91;96961.25;5054734;28;20415;-59
2021/03/18 03:12:11;;;;;;;7.17;4.47;;;;;;;5.16;71.96;96955.50;5055604;28;20433;-59
2021/03/18 03:14:39;;;;;;;5.03;3.93;;;;;;;5.19;71.92;96957.75;5053726;28;20413;-59
2021/03/18 03:17:06;;;;;;;5.80;3.97;;;;;;;5.13;72.84;96959.28;5054136;28;20416;-63
2021/03/18 03:19:36;;;;;;;4.50;4.20;;;;;;;5.03;72.03;96958.72;5054056;28;20477;-60
2021/03/18 03:22:04;;;;;;;8.20;3.90;;;;;;;5.09;72.40;96962.41;5054495;28;20750;-63
2021/03/18 03:24:33;;;;;;;4.33;3.90;;;;;;;5.12;72.31;96962.06;5054286;28;20417;-63
2021/03/18 03:26:59;;;;;;;5.10;4.40;;;;;;;5.02;73.12;96954.47;5054103;28;20453;-60
2021/03/18 03:29:25;;;;;;;6.60;4.20;;;;;;;5.07;72.78;96952.16;5053953;28;20963;-63
2021/03/18 03:31:51;;;;;;;6.70;4.20;;;;;;;5.03;72.63;96955.31;5054517;28;20405;-63
2021/03/18 03:34:17;;;;;;;5.30;4.00;;;;;;;5.09;72.11;96954.59;5054120;28;20470;-62
2021/03/18 03:36:52;;;;;;;4.57;4.10;;;;;;;5.01;72.20;96954.66;5090694;27;20517;-59
2021/03/18 03:39:17;;;;;;;4.50;4.00;;;;;;;5.09;72.37;96957.22;5077067;28;20447;-59
2021/03/18 03:41:44;;;;;;;4.67;4.13;;;;;;;4.96;71.86;96963.00;5090841;28;20177;-59
2021/03/18 03:44:09;;;;;;;4.53;4.13;;;;;;;5.04;71.74;96956.91;5090825;28;20169;-62
2021/03/18 03:46:35;;;;;;;4.50;4.10;;;;;;;5.10;72.43;96961.41;5083789;28;20481;-58
2021/03/18 03:49:02;;;;;;;5.40;4.87;;;;;;;5.13;72.38;96961.88;5070536;28;20721;-58
2021/03/18 03:51:35;;;;;;;7.73;4.00;;;;;;;5.12;72.53;96956.84;5070649;28;20170;-62
2021/03/18 03:54:03;;;;;;;4.30;3.90;;;;;;;5.16;72.72;96964.13;5070780;28;20454;-59
2021/03/18 03:56:46;;;;;;;5.97;4.40;;;;;;;5.14;73.16;96960.09;5069897;28;20455;-63
2021/03/18 03:59:17;;;;;;;6.07;4.53;;;;;;;5.20;73.06;96959.38;5070308;28;20432;-59
2021/03/18 04:01:56;;;;;;;6.23;4.50;;;;;;;5.28;72.03;96963.69;5079280;28;20936;-62
2021/03/18 04:04:27;;;;;;;5.17;4.47;;;;;;;5.31;72.34;96964.13;5089486;28;20747;-62
2021/03/18 04:06:57;;;;;;;4.67;4.20;;;;;;;5.21;72.21;96961.00;5090362;28;20415;-58
2021/03/18 04:09:23;;;;;;;6.20;4.43;;;;;;;5.19;72.94;96962.97;5090432;28;20484;-60
2021/03/18 04:11:50;;;;;;;4.60;4.20;;;;;;;5.15;72.53;96967.72;5090640;28;20406;-58
2021/03/18 04:14:20;;;;;;;5.00;4.50;;;;;;;5.10;72.35;96970.06;5090546;28;20407;-62
2021/03/18 04:16:47;;;;;;;5.37;4.37;;;;;;;5.11;72.40;96966.44;5077698;28;20476;-59
2021/03/18 04:19:19;;;;;;;5.40;4.67;;;;;;;5.11;72.87;96966.44;5082627;28;20501;-62
2021/03/18 04:21:47;;;;;;;4.73;4.07;;;;;;;4.95;73.01;96961.38;5089786;28;20425;-58
2021/03/18 04:24:14;;;;;;;4.53;3.73;;;;;;;4.94;73.23;96959.78;5090103;28;20491;-58
2021/03/18 04:26:41;;;;;;;4.97;4.47;;;;;;;4.99;73.41;96959.25;5089669;28;20415;-63
2021/03/18 04:29:07;;;;;;;4.67;4.00;;;;;;;5.05;73.00;96953.34;5090069;28;20414;-58
2021/03/18 04:31:36;;;;;;;4.57;4.17;;;;;;;5.05;73.43;96955.94;5077346;28;20509;-62
2021/03/18 04:34:02;;;;;;;4.23;3.93;;;;;;;5.16;73.94;96958.13;5076197;28;20610;-58
2021/03/18 04:36:29;;;;;;;5.40;3.73;;;;;;;5.23;72.74;96956.41;5089263;28;20542;-58
2021/03/18 04:38:57;;;;;;;4.80;4.40;;;;;;;5.21;72.13;96954.00;5089818;28;20431;-58
2021/03/18 04:41:23;;;;;;;5.70;3.77;;;;;;;5.25;72.70;96957.06;5070505;28;20856;-62
2021/03/18 04:43:49;;;;;;;5.27;4.03;;;;;;;5.29;71.36;96965.31;5069310;28;20409;-62
2021/03/18 04:46:14;;;;;;;5.20;3.97;;;;;;;5.32;71.49;96962.34;5067513;28;20470;-59
2021/03/18 04:48:42;;;;;;;4.23;3.90;;;;;;;5.29;70.98;96965.31;5060882;28;20837;-63
2021/03/18 04:51:08;;;;;;;4.33;3.67;;;;;;;5.31;71.78;96958.16;5076104;28;20180;-62
2021/03/18 04:53:35;;;;;;;6.73;4.00;;;;;;;5.37;71.55;96965.22;5076193;28;20408;-58
2021/03/18 04:56:03;;;;;;;11.53;4.17;;;;;;;5.29;70.77;96962.72;5069723;28;21040;-59
2021/03/18 04:58:30;;;;;;;6.57;4.50;;;;;;;5.31;71.75;96958.94;5055826;28;20437;-63
2021/03/18 05:00:57;;;;;;;5.00;3.90;;;;;;;5.34;70.87;96961.19;5062811;28;20426;-58
2021/03/18 05:03:22;;;;;;;5.10;4.60;;;;;;;5.21;70.49;96956.59;5076248;28;20442;-59
2021/03/18 05:05:50;;;;;;;6.00;4.80;;;;;;;5.23;70.57;96951.22;5076037;28;20404;-58
2021/03/18 05:08:18;;;;;;;4.10;3.70;;;;;;;5.20;70.73;96954.97;5075466;28;20235;-62
2021/03/18 05:10:45;;;;;;;6.80;4.33;;;;;;;5.18;71.27;96956.16;5076026;28;20415;-62
2021/03/18 05:13:12;;;;;;;5.40;4.30;;;;;;;5.20;71.37;96947.16;5075761;28;20404;-63
2021/03/18 05:15:39;;;;;;;5.00;4.60;;;;;;;5.25;71.71;96957.06;5069856;28;20552;-62
2021/03/18 05:18:08;;;;;;;7.00;4.60;;;;;;;5.23;71.53;96954.63;5053797;28;20445;-59
2021/03/18 05:20:35;;;;;;;4.33;4.00;;;;;;;5.28;70.70;96948.06;5055544;28;20466;-58
2021/03/18 05:23:00;;;;;;;7.47;4.30;;;;;;;5.28;71.40;96945.44;5055629;28;20915;-58
2021/03/18 05:25:28;;;;;;;5.43;4.30;;;;;;;5.24;71.19;96958.03;5055609;28;20403;-58
2021/03/18 05:27:55;;;;;;;4.83;4.20;;;;;;;5.21;70.58;96954.00;5055048;28;20198;-59
2021/03/18 05:30:21;;;;;;;4.77;4.07;;;;;;;5.29;70.96;96960.91;5060633;28;20433;-58
2021/03/18 05:32:46;;;;;;;6.90;4.10;;;;;;;5.29;71.20;96960.13;5075023;28;20412;-61
2021/03/18 05:35:13;;;;;;;5.43;4.10;;;;;;;5.29;70.17;96958.28;5054916;28;20465;-59
2021/03/18 05:37:39;;;;;;;4.47;4.10;;;;;;;5.32;70.84;96957.97;5054708;28;20196;-63
2021/03/18 05:40:11;;;;;;;5.53;4.90;;;;;;;5.37;70.42;96955.63;5055221;28;20410;-59
2021/03/18 05:42:37;;;;;;;5.53;4.83;;;;;;;5.38;70.29;96952.00;5071282;28;20429;-63
2021/03/18 05:45:11;;;;;;;6.47;4.33;;;;;;;5.40;70.00;96959.69;5075082;28;20402;-62
2021/03/18 05:47:37;;;;;;;4.53;4.13;;;;;;;5.35;70.35;96960.19;5073888;28;20502;-59
2021/03/18 05:50:06;;;;;;;5.80;4.67;;;;;;;5.33;70.99;96967.38;5055161;28;20805;-62
2021/03/18 05:52:34;;;;;;;5.50;4.73;;;;;;;5.32;70.96;96962.34;5055082;28;20419;-58
2021/03/18 05:55:00;;;;;;;5.13;4.60;;;;;;;5.32;70.91;96957.16;5054872;28;20475;-59
2021/03/18 05:57:26;;;;;;;6.30;4.50;;;;;;;5.33;71.33;96958.78;5058766;28;20904;-58
2021/03/18 05:59:53;;;;;;;5.20;4.70;;;;;;;5.30;71.06;96969.53;5058524;28;20205;-59
2021/03/18 06:02:19;;;;;;;8.33;5.10;;;;;;;5.28;71.28;96967.09;5074741;28;20413;-62
2021/03/18 06:04:45;;;;;;;6.17;4.73;;;;;;;5.13;71.67;96967.09;5074921;28;20834;-59
2021/03/18 06:07:11;;;;;;;5.50;5.00;;;;;;;5.21;71.06;96968.81;5074289;28;20404;-63
2021/03/18 06:09:37;;;;;;;4.77;4.27;;;;;;;5.25;71.42;96970.88;5058641;28;20198;-62
2021/03/18 06:12:02;;;;;;;6.73;4.73;;;;;;;5.27;71.36;96967.28;5074485;28;20499;-62
2021/03/18 06:14:28;;;;;;;5.00;4.60;;;;;;;5.31;71.44;96966.75;5074395;28;20181;-62
2021/03/18 06:16:54;;;;;;;11.43;4.80;;;;;;;5.33;71.40;96969.19;5074088;28;20182;-59
2021/03/18 06:19:20;;;;;;;5.50;5.00;;;;;;;5.20;71.36;96968.00;5074326;28;20198;-62
2021/03/18 06:21:51;;;;;;;4.27;3.87;;;;;;;5.10;72.17;96964.03;5072614;28;20799;-63
2021/03/18 06:24:17;;;;;;;6.40;4.63;;;;;;;4.97;71.89;96969.84;5072489;28;20171;-59
2021/03/18 06:26:43;;;;;;;5.53;5.00;;;;;;;4.95;72.80;96968.38;5073867;28;20462;-62
2021/03/18 06:29:36;;;;;;;4.67;4.27;;;;;;;5.00;71.85;96968.69;5056485;28;20445;-62
2021/03/18 06:32:23;;;;;;;6.47;4.30;;;;;;;4.96;72.56;96968.19;5054301;28;20407;-58
2021/03/18 06:34:56;;;;;;;6.40;5.07;;;;;;;4.99;72.66;96969.66;5054223;28;20924;-59
2021/03/18 06:37:36;;;;;;;5.40;3.70;;;;;;;4.99;72.16;96967.03;5053719;28;20435;-59
2021/03/18 06:40:12;;;;;;;7.53;5.10;;;;;;;5.02;73.19;96964.09;5054075;28;20412;-62
2021/03/18 06:42:40;;;;;;;5.63;4.90;;;;;;;5.03;72.40;96969.13;5054983;28;20500;-59
2021/03/18 06:45:10;;;;;;;7.80;5.67;;;;;;;5.08;73.15;96956.41;5053874;28;20416;-62
2021/03/18 06:48:00;;;;;;;5.93;4.80;;;;;;;5.06;73.00;96963.56;5053461;28;20532;-59
2021/03/18 06:50:39;;;;;;;5.07;4.57;;;;;;;5.10;72.67;96961.41;5055755;28;20504;-59
2021/03/18 06:53:25;;;;;;;5.17;4.73;;;;;;;5.13;72.38;96958.44;5065768;28;20443;-60
2021/03/18 06:55:51;;;;;;;5.67;4.73;;;;;;;5.27;72.74;96962.09;5053650;28;20449;-63
2021/03/18 06:58:25;;;;;;;6.00;4.80;;;;;;;5.16;71.54;96961.50;5052246;28;20532;-62
2021/03/18 07:01:04;;;;;;;5.27;4.50;;;;;;;5.07;72.69;96965.19;5053981;28;20886;-58
2021/03/18 07:03:37;;;;;;;5.57;4.70;;;;;;;5.05;72.18;96958.53;5058379;28;20775;-61
2021/03/18 07:06:23;;;;;;;7.43;5.67;;;;;;;5.08;72.32;96966.81;5073632;28;20481;-59
2021/03/18 07:09:02;;;;;;;5.83;4.43;;;;;;;5.26;71.68;96961.25;5057716;28;20806;-58
2021/03/18 07:11:27;;;;;;;7.13;5.10;;;;;;;5.38;71.55;96964.25;5053217;28;20409;-63
2021/03/18 07:13:53;;;;;;;5.33;4.83;;;;;;;5.29;72.57;96968.72;5053655;28;20418;-63
2021/03/18 07:16:18;;;;;;;5.80;4.93;;;;;;;5.37;72.53;96968.66;5053335;28;20206;-59
2021/03/18 07:19:04;;;;;;;7.17;4.63;;;;;;;5.14;73.23;96965.28;5053565;28;20210;-61
2021/03/18 07:21:38;;;;;;;5.40;4.90;;;;;;;5.29;72.23;96970.53;5053356;28;20574;-59
2021/03/18 07:24:04;;;;;;;6.53;4.70;;;;;;;5.44;71.74;96969.56;5071650;28;20421;-62
2021/03/18 07:26:38;;;;;;;8.97;5.53;;;;;;;5.38;72.32;96965.03;5073079;28;20416;-63
2021/03/18 07:29:14;;;;;;;6.40;4.90;;;;;;;5.57;72.33;96971.53;5053847;28;20750;-58
2021/03/18 07:31:40;;;;;;;8.70;5.20;;;;;;;5.57;71.11;96977.56;5059778;28;20511;-59
2021/03/18 07:34:07;;;;;;;8.67;5.80;;;;;;;5.67;71.59;96962.44;5073483;28;20871;-63
2021/03/18 07:36:32;;;;;;;6.40;5.07;;;;;;;5.79;70.48;96968.03;5072430;28;20455;-63
2021/03/18 07:38:58;;;;;;;7.37;5.60;;;;;;;5.69;70.15;96967.50;5073251;28;20918;-59
2021/03/18 07:41:24;;;;;;;10.23;5.50;;;;;;;5.73;71.06;96966.97;5073178;28;20177;-59
2021/03/18 07:43:50;;;;;;;6.50;5.03;;;;;;;5.77;70.86;96964.78;5071460;28;20193;-59
2021/03/18 07:46:18;;;;;;;6.90;5.27;;;;;;;5.73;70.89;96968.75;5071872;28;20436;-63
2021/03/18 07:48:47;;;;;;;6.63;4.83;;;;;;;5.88;69.83;96965.19;5054418;28;20441;-63
2021/03/18 07:51:15;;;;;;;6.27;5.67;;;;;;;5.78;69.80;96963.81;5053182;28;20406;-58
2021/03/18 07:53:42;;;;;;;5.93;5.33;;;;;;;5.95;69.73;96960.03;5053060;28;20424;-63
2021/03/18 07:56:13;;;;;;;9.07;5.60;;;;;;;6.15;69.60;96955.88;5052975;28;20475;-59
2021/03/18 07:58:43;;;;;;;6.63;5.40;;;;;;;6.25;69.04;96957.19;5053096;28;20567;-62
2021/03/18 08:01:28;;;;;;;8.80;5.87;;;;;;;6.23;68.64;96956.56;5053069;28;20417;-58
2021/03/18 08:03:54;;;;;;;7.20;5.63;;;;;;;6.35;68.61;96961.31;5060113;28;20444;-58
2021/03/18 08:06:41;;;;;;;7.60;5.83;;;;;;;6.44;68.98;96960.22;5061047;28;20452;-56
2021/03/18 08:09:06;;;;;;;7.40;6.67;;;;;;;6.49;69.45;96948.22;5053425;28;20980;-61
2021/03/18 08:11:34;;;;;;;6.80;6.07;;;;;;;6.45;68.24;96956.63;5058154;28;20425;-60
2021/03/18 08:14:17;;;;;;;8.30;6.40;;;;;;;6.48;67.96;96954.44;5072588;28;20196;-56
2021/03/18 08:16:43;;;;;;;8.97;6.97;;;;;;;6.53;68.63;96948.66;5072703;28;20498;-61
2021/03/18 08:19:13;;;;;;;5.93;5.33;;;;;;;6.40;67.57;96951.13;5072743;28;20436;-61
2021/03/18 08:21:44;;;;;;;7.37;6.57;;;;;;;6.48;68.64;96954.44;5072622;28;20643;-58
2021/03/18 08:24:13;;;;;;;7.90;7.07;;;;;;;6.66;68.34;96948.78;5060824;28;20487;-58
2021/03/18 08:26:52;;;;;;;7.70;6.10;;;;;;;6.66;68.27;96949.63;5074100;28;20463;-61
2021/03/18 08:29:33;;;;;;;10.83;7.37;;;;;;;6.55;67.65;96944.06;5060063;28;20520;-61
2021/03/18 08:32:02;;;;;;;12.23;7.60;;;;;;;6.52;66.77;96944.44;5056794;28;20404;-61
2021/03/18 08:34:49;;;;;;;8.60;6.50;;;;;;;5.87;67.08;96945.31;5062227;28;20417;-58
2021/03/18 08:37:30;;;;;;;6.87;6.13;;;;;;;6.32;67.86;96943.44;5063881;28;20459;-57
2021/03/18 08:39:55;;;;;;;10.97;6.37;;;;;;;6.58;64.20;96946.28;5076248;28;20427;-61
2021/03/18 08:42:33;;;;;;;8.10;5.83;;;;;;;6.77;64.08;96945.69;5076067;28;20837;-61
2021/03/18 08:45:07;;;;;;;9.20;6.33;;;;;;;6.82;64.35;96949.34;5067247;28;20181;-57
2021/03/18 08:47:38;;;;;;;9.30;6.87;;;;;;;6.87;63.13;96946.97;5056650;28;20437;-62
2021/03/18 08:50:07;;;;;;;8.60;6.50;;;;;;;6.73;62.25;96934.81;5056227;28;20410;-61
2021/03/18 08:52:39;;;;;;;9.20;7.63;;;;;;;6.78;62.47;96942.06;5055680;28;20406;-57
2021/03/18 08:55:07;;;;;;;7.23;6.53;;;;;;;6.76;61.06;96928.38;5056365;28;20539;-61
2021/03/18 08:57:34;;;;;;;10.27;6.67;;;;;;;6.81;60.96;96929.44;5071359;28;20444;-58
2021/03/18 09:00:01;;;;;;;6.80;6.03;;;;;;;6.63;59.65;96926.47;5073887;28;20423;-57
2021/03/18 09:02:34;;;;;;;8.00;5.67;;;;;;;6.53;62.03;96933.81;5061235;28;20512;-61
2021/03/18 09:05:01;;;;;;;7.30;5.93;;;;;;;6.65;63.67;96929.69;5063718;28;20424;-57
2021/03/18 09:07:29;;;;;;;9.47;6.97;;;;;;;6.79;63.79;96923.63;5075037;28;20421;-57
2021/03/18 09:10:06;;;;;;;8.37;7.57;;;;;;;6.90;64.69;96932.75;5076033;28;20440;-58
2021/03/18 09:12:54;;;;;;;10.13;9.13;;;;;;;6.87;64.04;96928.69;5074072;28;20462;-61
2021/03/18 09:15:37;;;;;;;6.90;5.53;;;;;;;6.83;66.20;96922.22;5075425;28;20455;-57
2021/03/18 09:18:18;;;;;;;8.93;7.50;;;;;;;6.92;67.16;96921.09;5073962;28;20437;-56
2021/03/18 09:21:08;;;;;;;8.90;6.90;;;;;;;7.04;66.26;96921.41;5070054;28;20456;-59
2021/03/18 09:23:39;;;;;;;8.27;6.13;;;;;;;6.99;66.41;96918.56;5072827;28;20576;-60
2021/03/18 09:26:09;;;;;;;7.83;6.30;;;;;;;7.20;66.87;96919.31;5066747;28;20428;-59
2021/03/18 09:28:50;;;;;;;7.53;6.37;;;;;;;7.35;63.68;96924.44;5068169;28;21032;-63
2021/03/18 09:31:22;;;;;;;11.13;6.30;;;;;;;7.32;63.53;96916.19;5070510;28;20490;-62
2021/03/18 09:33:49;;;;;;;7.53;6.73;;;;;;;7.43;64.12;96913.81;5071673;28;20508;-58
2021/03/18 09:36:14;;;;;;;6.83;6.10;;;;;;;7.16;63.72;96923.31;5053812;28;20454;-60
2021/03/18 09:38:41;;;;;;;6.57;5.97;;;;;;;7.24;62.90;96917.13;5051706;28;20430;-61
2021/03/18 09:41:07;;;;;;;6.20;5.40;;;;;;;7.17;63.16;96918.91;5053916;28;20241;-62
2021/03/18 09:43:33;;;;;;;7.10;6.40;;;;;;;7.19;64.55;96920.31;5051622;28;20468;-60
2021/03/18 09:46:04;;;;;;;7.97;6.40;;;;;;;7.07;64.30;96914.00;5051185;28;20806;-60
2021/03/18 09:48:35;;;;;;;8.33;6.13;;;;;;;7.06;64.30;96912.41;5051294;28;20229;-65
2021/03/18 09:51:13;;;;;;;8.73;6.70;;;;;;;7.11;65.09;96915.25;5054312;28;20428;-61
2021/03/18 09:53:41;;;;;;;6.20;5.70;;;;;;;7.20;63.08;96921.94;5051553;28;20464;-62
2021/03/18 09:56:14;;;;;;;7.93;5.70;;;;;;;7.07;62.28;96914.00;5051148;28;20464;-62
2021/03/18 09:58:41;;;;;;;8.80;5.80;;;;;;;7.24;62.30;96911.91;5051316;28;20504;-61
2021/03/18 10:01:19;;;;;;;8.33;6.23;;;;;;;7.37;63.00;96905.94;5051391;28;20461;-60
2021/03/18 10:03:58;;;;;;;6.67;5.97;;;;;;;7.40;61.34;96906.38;5060465;28;20483;-62
2021/03/18 10:06:29;;;;;;;6.13;5.53;;;;;;;7.31;62.05;96904.91;5070875;28;20433;-62
2021/03/18 10:09:23;;;;;;;9.43;5.87;;;;;;;7.34;61.72;96898.50;5065240;28;20549;-59
2021/03/18 10:11:55;;;;;;;8.57;6.30;;;;;;;7.39;63.00;96907.38;5054436;28;20430;-60
2021/03/18 10:14:37;;;;;;;7.17;6.07;;;;;;;7.33;63.32;96900.31;5060528;28;20431;-60
2021/03/18 10:17:06;;;;;;;7.20;6.50;;;;;;;7.17;62.91;96898.00;5053890;28;20417;-63
2021/03/18 10:19:34;;;;;;;17.43;8.03;;;;;;;7.12;65.27;96895.94;5070700;28;20444;-63
2021/03/18 10:22:04;;;;;;;7.30;6.03;;;;;;;7.37;64.79;96895.50;5070937;28;20413;-61
2021/03/18 10:24:29;;;;;;;5.77;5.20;;;;;;;7.40;63.36;96900.34;5068943;28;20428;-62
2021/03/18 10:27:06;;;;;;;6.63;5.30;;;;;;;7.33;62.69;96892.47;5069767;28;21031;-62
2021/03/18 10:29:35;;;;;;;5.83;5.13;;;;;;;7.42;60.37;96890.50;5061813;28;20281;-64
2021/03/18 10:32:13;;;;;;;8.20;5.30;;;;;;;7.47;62.28;96882.88;5050639;28;20418;-62
2021/03/18 10:34:40;;;;;;;8.53;6.40;;;;;;;7.69;61.17;96881.78;5050600;28;20414;-61
2021/03/18 10:37:27;;;;;;;6.73;6.03;;;;;;;7.83;60.06;96886.06;5050294;28;20423;-61
2021/03/18 10:40:07;;;;;;;7.17;5.23;;;;;;;7.83;61.35;96884.25;5051034;28;20420;-63
2021/03/18 10:42:32;;;;;;;7.90;6.90;;;;;;;7.77;60.57;96877.19;5061127;28;20881;-63
2021/03/18 10:45:11;;;;;;;5.83;5.20;;;;;;;7.90;59.45;96879.88;5058889;28;20415;-60
2021/03/18 10:47:44;;;;;;;6.00;5.40;;;;;;;7.71;60.06;96871.94;5068834;28;20204;-62
2021/03/18 10:50:12;;;;;;;7.00;6.13;;;;;;;7.94;60.20;96872.41;5070364;28;20413;-58
2021/03/18 10:52:38;;;;;;;5.63;5.03;;;;;;;7.95;59.60;96874.84;5066523;28;20460;-59
2021/03/18 10:55:06;;;;;;;9.23;6.40;;;;;;;7.87;59.63;96872.41;5050231;28;20543;-57
2021/03/18 10:57:31;;;;;;;9.00;7.67;;;;;;;7.62;59.71;96867.88;5049931;28;20427;-58
2021/03/18 10:59:58;;;;;;;7.00;6.00;;;;;;;7.59;59.49;96865.66;5061246;28;20414;-57
2021/03/18 11:02:29;;;;;;;6.57;5.17;;;;;;;7.37;59.55;96870.19;5070356;28;20183;-60
2021/03/18 11:04:56;;;;;;;8.87;6.00;;;;;;;7.53;58.60;96863.81;5053452;28;20411;-58
2021/03/18 11:07:22;;;;;;;6.57;5.80;;;;;;;7.05;59.89;96865.53;5050547;28;20484;-60
2021/03/18 11:10:06;;;;;;;8.80;5.93;;;;;;;7.05;60.46;96860.31;5050690;28;20419;-58
2021/03/18 11:12:31;;;;;;;8.63;5.80;;;;;;;7.12;61.89;96866.41;5052301;28;20195;-57
2021/03/18 11:14:57;;;;;;;6.60;5.90;;;;;;;7.22;62.06;96862.44;5066460;28;20818;-59
2021/03/18 11:17:27;;;;;;;6.30;5.70;;;;;;;7.42;58.96;96859.94;5073020;28;20537;-57
2021/03/18 11:20:09;;;;;;;6.70;5.20;;;;;;;7.37;58.29;96859.72;5073579;28;20167;-57
2021/03/18 11:22:34;;;;;;;6.60;4.97;;;;;;;7.66;59.19;96859.47;5056029;28;20473;-58
2021/03/18 11:25:04;;;;;;;8.23;5.57;;;;;;;7.63;58.91;96859.03;5053192;28;20404;-58
2021/03/18 11:27:31;;;;;;;10.13;5.73;;;;;;;7.38;58.09;96860.50;5053072;28;20173;-58
2021/03/18 11:29:57;;;;;;;6.27;5.30;;;;;;;7.14;56.08;96853.94;5051888;28;20414;-57
2021/03/18 11:32:25;;;;;;;6.50;4.80;;;;;;;7.54;56.17;96849.72;5053100;28;20460;-58
2021/03/18 11:34:57;;;;;;;5.80;4.70;;;;;;;7.82;56.18;96840.81;5052932;28;20469;-57
2021/03/18 11:37:23;;;;;;;6.40;4.30;;;;;;;7.93;55.48;96842.03;5059272;28;20760;-58
2021/03/18 11:39:49;;;;;;;8.77;3.70;;;;;;;8.00;54.63;96845.50;5062101;28;20428;-60
2021/03/18 11:42:14;;;;;;;3.83;3.53;;;;;;;7.72;53.96;96835.13;5053269;28;20534;-58
2021/03/18 11:44:40;;;;;;;4.87;4.00;;;;;;;7.95;54.51;96834.81;5053547;28;20173;-58
2021/03/18 11:47:08;;;;;;;4.70;3.70;;;;;;;8.16;53.80;96832.84;5052784;28;20171;-59
2021/03/18 11:49:35;;;;;;;4.00;3.40;;;;;;;8.32;52.38;96826.44;5056252;28;20538;-58
2021/03/18 11:52:01;;;;;;;3.97;3.57;;;;;;;8.43;52.77;96825.84;5056729;28;20500;-56
2021/03/18 11:54:26;;;;;;;6.53;3.90;;;;;;;8.50;48.79;96821.44;5065369;28;20514;-56